createdAt,value
2022-10-18T00:00:02.410Z,78.76
2022-10-18T00:02:31.349Z,78.49
2022-10-18T00:04:57.958Z,78.48
2022-10-18T00:07:24.646Z,79.28
2022-10-18T00:09:51.206Z,80.08
2022-10-18T00:12:17.804Z,79.94
2022-10-18T00:14:44.345Z,79.13
2022-10-18T00:17:11.008Z,78.11
2022-10-18T00:19:37.556Z,78.53
2022-10-18T00:22:04.281Z,78.67
2022-10-18T00:24:30.879Z,78.70
2022-10-18T00:26:57.505Z,78.98
2022-10-18T00:29:24.142Z,79.09
2022-10-18T00:31:51.297Z,78.81
2022-10-18T00:34:17.901Z,79.58
2022-10-18T00:36:44.892Z,79.23
2022-10-18T00:39:19.806Z,79.06
2022-10-18T00:41:47.568Z,79.76
2022-10-18T00:44:14.132Z,80.04
2022-10-18T00:46:43.525Z,79.69
2022-10-18T00:49:17.258Z,79.57
2022-10-18T00:51:47.067Z,79.30
2022-10-18T00:54:16.168Z,79.35
2022-10-18T00:56:44.844Z,79.35
2022-10-18T00:59:14.577Z,78.72
2022-10-18T01:01:41.257Z,80.15
2022-10-18T01:04:08.180Z,80.59
2022-10-18T01:06:47.965Z,80.96
2022-10-18T01:09:31.966Z,80.26
2022-10-18T01:12:24.522Z,80.22
2022-10-18T01:15:12.485Z,79.55
2022-10-18T01:17:48.134Z,79.76
2022-10-18T01:20:33.166Z,79.19
2022-10-18T01:23:16.034Z,79.66
2022-10-18T01:26:33.120Z,79.42
2022-10-18T01:29:15.558Z,79.56
2022-10-18T01:31:56.379Z,79.40
2022-10-18T01:34:29.031Z,77.73
2022-10-18T01:36:57.616Z,78.58
2022-10-18T01:39:28.135Z,78.21
2022-10-18T01:41:57.711Z,78.21
2022-10-18T01:44:26.862Z,78.17
2022-10-18T01:46:56.428Z,78.21
2022-10-18T01:49:24.548Z,78.90
2022-10-18T01:51:51.136Z,77.84
2022-10-18T01:54:22.630Z,78.09
2022-10-18T01:56:51.998Z,79.05
2022-10-18T01:59:38.121Z,79.54
2022-10-18T02:02:32.762Z,80.42
2022-10-18T02:05:28.715Z,80.61
2022-10-18T02:08:23.161Z,80.89
2022-10-18T02:11:04.680Z,79.40
2022-10-18T02:13:41.758Z,80.00
2022-10-18T02:16:13.269Z,80.26
2022-10-18T02:18:44.455Z,79.74
2022-10-18T02:21:15.776Z,79.66
2022-10-18T02:23:45.294Z,79.26
2022-10-18T02:26:13.368Z,79.55
2022-10-18T02:28:40.770Z,79.53
2022-10-18T02:31:30.828Z,79.71
2022-10-18T02:34:16.694Z,80.39
2022-10-18T02:36:48.103Z,79.57
2022-10-18T02:39:26.229Z,79.33
2022-10-18T02:41:54.634Z,79.41
2022-10-18T02:44:21.387Z,78.86
2022-10-18T02:46:48.467Z,79.14
2022-10-18T02:49:15.139Z,79.00
2022-10-18T02:51:41.822Z,79.33
2022-10-18T02:54:08.572Z,79.98
2022-10-18T02:56:35.878Z,80.59
2022-10-18T02:59:03.630Z,79.28
2022-10-18T03:01:30.325Z,78.77
2022-10-18T03:03:57.487Z,79.95
2022-10-18T03:06:24.173Z,80.57
2022-10-18T03:08:50.756Z,80.97
2022-10-18T03:11:17.424Z,79.55
2022-10-18T03:13:43.988Z,79.20
2022-10-18T03:16:10.681Z,79.48
2022-10-18T03:18:37.271Z,80.25
2022-10-18T03:21:07.915Z,80.90
2022-10-18T03:23:34.851Z,81.41
2022-10-18T03:26:01.564Z,80.94
2022-10-18T03:28:28.539Z,81.03
2022-10-18T03:31:01.026Z,81.00
2022-10-18T03:33:28.096Z,80.96
2022-10-18T03:35:54.643Z,81.19
2022-10-18T03:38:21.310Z,80.40
2022-10-18T03:40:47.917Z,81.71
2022-10-18T03:43:14.706Z,81.32
2022-10-18T03:45:41.394Z,81.13
2022-10-18T03:48:08.104Z,81.22
2022-10-18T03:50:34.717Z,80.53
2022-10-18T03:53:01.371Z,81.40
2022-10-18T03:55:28.038Z,80.09
2022-10-18T03:57:54.686Z,80.64
2022-10-18T04:00:21.325Z,79.83
2022-10-18T04:02:51.875Z,79.78
2022-10-18T04:05:23.931Z,80.96
2022-10-18T04:07:50.783Z,80.82
2022-10-18T04:10:18.644Z,80.49
2022-10-18T04:12:45.369Z,80.50
2022-10-18T04:15:12.021Z,80.88
2022-10-18T04:17:38.822Z,80.76
2022-10-18T04:20:06.052Z,80.42
2022-10-18T04:22:32.683Z,79.77
2022-10-18T04:24:59.296Z,80.27
2022-10-18T04:27:25.824Z,80.63
2022-10-18T04:29:52.488Z,79.43
2022-10-18T04:32:19.013Z,79.29
2022-10-18T04:34:45.625Z,79.86
2022-10-18T04:37:12.296Z,80.40
2022-10-18T04:39:38.986Z,79.66
2022-10-18T04:42:05.572Z,78.99
2022-10-18T04:44:32.262Z,78.60
2022-10-18T04:46:58.805Z,78.94
2022-10-18T04:49:25.556Z,79.88
2022-10-18T04:51:52.140Z,81.53
2022-10-18T04:54:18.776Z,82.04
2022-10-18T04:56:45.301Z,81.63
2022-10-18T04:59:12.022Z,81.38
2022-10-18T05:01:38.598Z,80.98
2022-10-18T05:04:05.376Z,80.14
2022-10-18T05:06:31.998Z,79.60
2022-10-18T05:08:58.608Z,80.55
2022-10-18T05:11:25.154Z,80.12
2022-10-18T05:13:52.430Z,81.15
2022-10-18T05:16:19.180Z,81.23
2022-10-18T05:18:45.903Z,80.87
2022-10-18T05:21:12.612Z,81.18
2022-10-18T05:23:39.735Z,79.92
2022-10-18T05:26:07.214Z,80.01
2022-10-18T05:28:39.686Z,80.22
2022-10-18T05:31:09.782Z,80.94
2022-10-18T05:33:36.743Z,80.12
2022-10-18T05:36:04.100Z,80.13
2022-10-18T05:38:31.130Z,80.57
2022-10-18T05:40:59.145Z,80.76
2022-10-18T05:43:29.288Z,81.00
2022-10-18T05:45:55.994Z,80.72
2022-10-18T05:48:22.673Z,80.60
2022-10-18T05:50:49.400Z,78.87
2022-10-18T05:53:35.756Z,79.03
2022-10-18T05:56:03.659Z,79.95
2022-10-18T05:58:30.344Z,80.81
2022-10-18T06:01:01.552Z,80.68
2022-10-18T06:03:30.583Z,80.14
2022-10-18T06:06:09.192Z,80.90
2022-10-18T06:08:36.752Z,80.42
2022-10-18T06:11:14.709Z,81.21
2022-10-18T06:13:42.854Z,81.05
2022-10-18T06:16:10.958Z,81.71
2022-10-18T06:18:38.372Z,81.35
2022-10-18T06:21:05.636Z,79.93
2022-10-18T06:23:32.464Z,80.75
2022-10-18T06:26:05.107Z,81.24
2022-10-18T06:28:34.235Z,81.01
2022-10-18T06:31:01.558Z,81.37
2022-10-18T06:33:30.305Z,81.99
2022-10-18T06:36:02.150Z,82.33
2022-10-18T06:38:29.836Z,83.08
2022-10-18T06:40:58.093Z,82.82
2022-10-18T06:43:25.168Z,82.52
2022-10-18T06:45:52.331Z,81.71
2022-10-18T06:51:10.615Z,83.13
2022-10-18T06:53:44.177Z,82.83
2022-10-18T06:56:15.606Z,83.34
2022-10-18T06:58:42.373Z,83.66
2022-10-18T07:01:12.293Z,83.74
2022-10-18T07:03:39.332Z,84.43
2022-10-18T07:06:07.533Z,84.44
2022-10-18T07:08:34.824Z,85.55
2022-10-18T07:11:01.698Z,85.63
2022-10-18T07:13:33.358Z,85.86
2022-10-18T07:16:10.658Z,86.24
2022-10-18T07:18:42.135Z,85.91
2022-10-18T07:21:11.547Z,85.70
2022-10-18T07:23:40.498Z,86.10
2022-10-18T07:26:27.538Z,85.72
2022-10-18T07:29:05.233Z,85.70
2022-10-18T07:31:32.004Z,85.72
2022-10-18T07:33:58.979Z,85.94
2022-10-18T07:36:25.997Z,85.74
2022-10-18T07:38:53.402Z,85.61
2022-10-18T07:41:20.770Z,85.37
2022-10-18T07:43:50.767Z,85.49
2022-10-18T07:46:18.360Z,85.22
2022-10-18T07:48:45.042Z,84.76
2022-10-18T07:51:12.606Z,85.26
2022-10-18T07:53:39.407Z,86.16
2022-10-18T07:56:11.509Z,86.23
2022-10-18T07:58:38.254Z,86.28
2022-10-18T08:01:06.989Z,86.32
2022-10-18T08:03:34.488Z,85.70
2022-10-18T08:06:01.123Z,85.88
2022-10-18T08:08:28.918Z,85.84
2022-10-18T08:10:55.886Z,85.82
2022-10-18T08:13:22.625Z,86.36
2022-10-18T08:15:49.587Z,87.10
2022-10-18T08:18:18.640Z,86.74
2022-10-18T08:20:46.376Z,87.03
2022-10-18T08:23:13.264Z,86.95
2022-10-18T08:25:40.287Z,88.99
2022-10-18T08:28:07.600Z,89.09
2022-10-18T08:30:35.871Z,88.90
2022-10-18T08:33:03.690Z,87.49
2022-10-18T08:35:31.675Z,87.84
2022-10-18T08:37:59.437Z,85.97
2022-10-18T08:40:27.596Z,86.03
2022-10-18T08:43:07.392Z,86.72
2022-10-18T08:45:43.261Z,86.93
2022-10-18T08:48:47.473Z,86.70
2022-10-18T08:51:25.807Z,86.43
2022-10-18T08:54:03.013Z,84.49
2022-10-18T08:56:30.285Z,84.45
2022-10-18T08:58:56.885Z,83.89
2022-10-18T09:01:50.100Z,83.65
2022-10-18T09:04:42.995Z,83.40
2022-10-18T09:07:38.472Z,83.46
2022-10-18T09:10:15.322Z,82.95
2022-10-18T09:12:57.276Z,82.66
2022-10-18T09:15:59.265Z,82.24
2022-10-18T09:18:35.179Z,82.77
2022-10-18T09:21:17.441Z,83.40
2022-10-18T09:24:01.462Z,83.68
2022-10-18T09:26:28.480Z,83.93
2022-10-18T09:29:15.667Z,83.70
2022-10-18T09:31:52.985Z,82.54
2022-10-18T09:34:45.777Z,82.76
2022-10-18T09:37:14.995Z,81.66
2022-10-18T09:39:42.229Z,80.12
2022-10-18T09:42:26.760Z,77.73
2022-10-18T09:45:02.349Z,79.43
2022-10-18T09:47:39.448Z,79.21
2022-10-18T09:50:22.285Z,79.13
2022-10-18T09:52:57.681Z,80.50
2022-10-18T09:55:30.680Z,79.85
2022-10-18T09:58:02.357Z,78.68
2022-10-18T10:00:38.773Z,78.36
2022-10-18T10:03:14.832Z,78.95
2022-10-18T10:05:42.590Z,78.29
2022-10-18T10:08:09.877Z,76.40
2022-10-18T10:10:40.531Z,74.39
2022-10-18T10:13:22.772Z,73.79
2022-10-18T10:16:00.103Z,74.07
2022-10-18T10:18:34.311Z,74.76
2022-10-18T10:21:07.196Z,76.22
2022-10-18T10:23:44.758Z,75.63
2022-10-18T10:26:25.191Z,76.76
2022-10-18T10:28:52.288Z,76.91
2022-10-18T10:31:24.834Z,76.94
2022-10-18T10:33:59.361Z,75.03
2022-10-18T10:36:26.293Z,74.79
2022-10-18T10:39:06.548Z,75.48
2022-10-18T10:41:33.944Z,75.98
2022-10-18T10:44:04.003Z,75.59
2022-10-18T10:46:36.415Z,75.50
2022-10-18T10:49:35.014Z,74.96
2022-10-18T10:52:33.735Z,73.60
2022-10-18T10:55:23.649Z,73.72
2022-10-18T10:57:52.451Z,75.09
2022-10-18T11:00:42.854Z,74.68
2022-10-18T11:03:33.815Z,75.51
2022-10-18T11:06:01.922Z,73.10
2022-10-18T11:08:36.142Z,74.95
2022-10-18T11:11:32.156Z,74.14
2022-10-18T11:17:05.611Z,73.16
2022-10-18T11:20:12.919Z,74.48
2022-10-18T11:22:53.614Z,73.82
2022-10-18T11:25:25.204Z,73.79
2022-10-18T11:28:19.301Z,72.94
2022-10-18T11:31:16.213Z,73.63
2022-10-18T11:34:24.553Z,73.36
2022-10-18T11:37:39.212Z,72.21
2022-10-18T11:40:08.374Z,70.90
2022-10-18T11:42:56.817Z,68.65
2022-10-18T11:45:44.696Z,69.03
2022-10-18T11:48:35.722Z,68.13
2022-10-18T11:51:25.560Z,68.32
2022-10-18T11:54:30.542Z,67.79
2022-10-18T11:57:03.013Z,66.83
2022-10-18T11:59:47.319Z,68.38
2022-10-18T12:02:48.088Z,66.42
2022-10-18T12:05:24.924Z,66.80
2022-10-18T12:08:09.940Z,67.10
2022-10-18T12:10:52.534Z,65.68
2022-10-18T12:13:40.469Z,64.12
2022-10-18T12:16:09.520Z,63.63
2022-10-18T12:18:47.285Z,64.63
2022-10-18T12:21:14.573Z,63.71
2022-10-18T12:24:07.312Z,65.43
2022-10-18T12:26:35.693Z,65.36
2022-10-18T12:29:26.133Z,66.56
2022-10-18T12:31:58.547Z,63.95
2022-10-18T12:34:51.946Z,64.62
2022-10-18T12:37:50.827Z,61.42
2022-10-18T12:40:23.077Z,63.26
2022-10-18T12:42:52.934Z,63.45
2022-10-18T12:45:33.375Z,62.56
2022-10-18T12:48:06.955Z,63.73
2022-10-18T12:50:35.628Z,62.14
2022-10-18T12:53:10.130Z,65.42
2022-10-18T12:55:45.440Z,65.74
2022-10-18T12:58:14.938Z,64.65
2022-10-18T13:00:45.142Z,64.30
2022-10-18T13:03:18.072Z,66.93
2022-10-18T13:05:55.939Z,64.63
2022-10-18T13:08:29.602Z,64.42
2022-10-18T13:11:02.149Z,65.07
2022-10-18T13:13:55.725Z,65.73
2022-10-18T13:16:22.697Z,66.51
2022-10-18T13:18:55.349Z,63.81
2022-10-18T13:21:43.625Z,65.31
2022-10-18T13:24:29.127Z,66.19
2022-10-18T13:27:31.392Z,67.26
2022-10-18T13:30:14.543Z,63.00
2022-10-18T13:32:57.403Z,62.50
2022-10-18T13:35:45.759Z,63.21
2022-10-18T13:38:49.715Z,64.34
2022-10-18T13:43:54.172Z,64.13
2022-10-18T13:46:33.486Z,63.36
2022-10-18T13:49:44.537Z,62.59
2022-10-18T13:52:52.191Z,62.38
2022-10-18T13:55:43.439Z,63.06
2022-10-18T13:58:23.466Z,62.05
2022-10-18T14:01:14.844Z,62.50
2022-10-18T14:04:05.772Z,62.54
2022-10-18T14:06:42.635Z,61.78
2022-10-18T14:09:40.254Z,62.83
2022-10-18T14:12:29.889Z,62.42
2022-10-18T14:15:04.144Z,62.33
2022-10-18T14:17:43.089Z,62.76
2022-10-18T14:20:30.990Z,61.88
2022-10-18T14:23:14.849Z,61.86
2022-10-18T14:25:41.924Z,62.28
2022-10-18T14:28:31.418Z,61.81
2022-10-18T14:31:06.556Z,62.44
2022-10-18T14:33:46.665Z,64.43
2022-10-18T14:36:22.740Z,63.76
2022-10-18T14:38:53.556Z,61.38
2022-10-18T14:41:20.183Z,61.68
2022-10-18T14:43:48.373Z,61.80
2022-10-18T14:46:22.185Z,61.73
2022-10-18T14:48:57.893Z,62.88
2022-10-18T14:51:26.627Z,64.12
2022-10-18T14:53:54.298Z,63.41
2022-10-18T14:56:30.262Z,62.84
2022-10-18T14:59:00.144Z,61.53
2022-10-18T15:01:30.717Z,63.37
2022-10-18T15:04:00.152Z,64.67
2022-10-18T15:06:27.692Z,64.46
2022-10-18T15:08:57.985Z,63.70
2022-10-18T15:11:25.920Z,63.28
2022-10-18T15:13:59.271Z,64.08
2022-10-18T15:16:29.269Z,63.80
2022-10-18T15:19:01.348Z,64.54
2022-10-18T15:21:28.107Z,65.05
2022-10-18T15:23:55.410Z,65.24
2022-10-18T15:26:26.808Z,66.01
2022-10-18T15:28:56.693Z,67.04
2022-10-18T15:31:23.429Z,67.26
2022-10-18T15:33:50.402Z,68.35
2022-10-18T15:36:26.622Z,68.49
2022-10-18T15:38:53.500Z,69.33
2022-10-18T15:41:45.069Z,70.24
2022-10-18T15:44:25.738Z,70.77
2022-10-18T15:46:56.154Z,71.18
2022-10-18T15:49:44.367Z,71.27
2022-10-18T15:52:40.070Z,71.84
2022-10-18T15:55:45.330Z,72.69
2022-10-18T15:58:39.097Z,73.53
2022-10-18T16:01:28.054Z,74.23
2022-10-18T16:06:26.584Z,75.08
2022-10-18T16:08:53.945Z,74.87
2022-10-18T16:11:26.525Z,75.61
2022-10-18T16:13:56.457Z,75.38
2022-10-18T16:16:29.138Z,75.58
2022-10-18T16:18:56.805Z,75.89
2022-10-18T16:21:28.265Z,75.78
2022-10-18T16:23:55.609Z,75.98
2022-10-18T16:26:23.153Z,76.45
2022-10-18T16:28:51.432Z,76.28
2022-10-18T16:31:24.037Z,76.71
2022-10-18T16:33:52.033Z,76.80
2022-10-18T16:36:21.465Z,77.34
2022-10-18T16:38:49.124Z,76.72
2022-10-18T16:41:16.918Z,77.24
2022-10-18T16:43:45.620Z,77.05
2022-10-18T16:46:18.685Z,77.48
2022-10-18T16:48:46.720Z,77.27
2022-10-18T16:51:13.528Z,77.76
2022-10-18T16:53:41.184Z,77.97
2022-10-18T16:56:14.396Z,77.72
2022-10-18T16:58:41.661Z,77.52
2022-10-18T17:01:12.361Z,77.82
2022-10-18T17:03:39.571Z,77.30
2022-10-18T17:06:06.781Z,78.24
2022-10-18T17:08:33.953Z,78.28
2022-10-18T17:11:01.808Z,77.91
2022-10-18T17:13:28.719Z,77.74
2022-10-18T17:15:55.566Z,78.19
2022-10-18T17:18:26.509Z,78.28
2022-10-18T17:20:53.754Z,79.17
2022-10-18T17:23:20.560Z,78.93
2022-10-18T17:25:59.097Z,78.74
2022-10-18T17:28:34.235Z,79.18
2022-10-18T17:31:01.029Z,79.26
2022-10-18T17:33:27.954Z,79.12
2022-10-18T17:35:54.776Z,78.75
2022-10-18T17:38:21.502Z,78.26
2022-10-18T17:40:48.187Z,78.14
2022-10-18T17:43:15.047Z,78.08
2022-10-18T17:45:49.268Z,79.13
2022-10-18T17:48:17.361Z,78.83
2022-10-18T17:50:43.910Z,78.99
2022-10-18T17:53:11.937Z,78.72
2022-10-18T17:55:39.305Z,78.69
2022-10-18T17:58:06.200Z,79.46
2022-10-18T18:00:32.802Z,79.25
2022-10-18T18:03:01.075Z,79.37
2022-10-18T18:05:32.431Z,79.44
2022-10-18T18:08:02.961Z,79.54
2022-10-18T18:10:35.075Z,79.14
2022-10-18T18:13:02.788Z,79.68
2022-10-18T18:15:30.076Z,78.98
2022-10-18T18:17:58.233Z,78.44
2022-10-18T18:20:25.846Z,78.12
2022-10-18T18:22:52.976Z,78.34
2022-10-18T18:25:20.092Z,78.60
2022-10-18T18:27:46.826Z,78.32
2022-10-18T18:30:14.379Z,79.19
2022-10-18T18:32:41.046Z,78.73
2022-10-18T18:35:07.826Z,77.97
2022-10-18T18:37:34.782Z,78.08
2022-10-18T18:40:01.487Z,79.55
2022-10-18T18:42:28.209Z,78.61
2022-10-18T18:44:54.904Z,79.16
2022-10-18T18:47:23.418Z,78.01
2022-10-18T18:49:51.543Z,78.22
2022-10-18T18:52:18.215Z,77.94
2022-10-18T18:54:45.038Z,78.79
2022-10-18T18:57:12.054Z,77.81
2022-10-18T18:59:38.690Z,78.17
2022-10-18T19:02:05.375Z,77.99
2022-10-18T19:04:33.326Z,77.30
2022-10-18T19:07:00.134Z,77.52
2022-10-18T19:09:27.508Z,78.43
2022-10-18T19:11:56.296Z,77.44
2022-10-18T19:14:25.897Z,78.43
2022-10-18T19:16:55.022Z,78.53
2022-10-18T19:19:24.071Z,78.55
2022-10-18T19:21:56.150Z,80.32
2022-10-18T19:24:25.014Z,79.92
2022-10-18T19:26:54.903Z,78.05
2022-10-18T19:29:23.085Z,77.59
2022-10-18T19:31:51.482Z,77.94
2022-10-18T19:34:20.962Z,77.83
2022-10-18T19:36:48.674Z,78.60
2022-10-18T19:39:18.698Z,78.53
2022-10-18T19:41:46.933Z,78.30
2022-10-18T19:44:13.637Z,78.62
2022-10-18T19:46:40.280Z,79.03
2022-10-18T19:49:06.966Z,78.01
2022-10-18T19:51:33.665Z,77.31
2022-10-18T19:54:00.475Z,77.39
2022-10-18T19:56:27.992Z,77.01
2022-10-18T19:58:57.131Z,78.21
2022-10-18T20:01:25.438Z,78.05
2022-10-18T20:03:52.149Z,77.67
2022-10-18T20:06:19.425Z,78.07
2022-10-18T20:08:46.644Z,78.37
2022-10-18T20:11:19.354Z,76.38
2022-10-18T20:13:46.423Z,77.05
2022-10-18T20:16:15.836Z,78.07
2022-10-18T20:18:45.735Z,76.94
2022-10-18T20:21:17.389Z,78.89
2022-10-18T20:23:44.560Z,79.10
2022-10-18T20:26:18.119Z,77.58
2022-10-18T20:28:48.653Z,77.45
2022-10-18T20:31:18.473Z,77.10
2022-10-18T20:33:46.509Z,76.88
2022-10-18T20:36:16.519Z,78.16
2022-10-18T20:38:45.852Z,78.80
2022-10-18T20:41:18.681Z,78.27
2022-10-18T20:43:57.532Z,78.70
2022-10-18T20:46:25.210Z,77.33
2022-10-18T20:48:53.451Z,77.78
2022-10-18T20:51:20.630Z,78.18
2022-10-18T20:53:47.306Z,78.89
2022-10-18T20:56:22.062Z,79.23
2022-10-18T20:58:51.790Z,78.77
2022-10-18T21:01:38.614Z,78.50
2022-10-18T21:04:07.636Z,78.00
2022-10-18T21:06:42.592Z,78.25
2022-10-18T21:09:15.558Z,77.84
2022-10-18T21:11:44.932Z,77.04
2022-10-18T21:14:17.472Z,77.96
2022-10-18T21:16:44.892Z,77.42
2022-10-18T21:19:14.667Z,77.52
2022-10-18T21:21:43.933Z,77.58
2022-10-18T21:24:10.894Z,76.96
2022-10-18T21:26:37.611Z,77.41
2022-10-18T21:29:05.519Z,76.69
2022-10-18T21:31:35.065Z,76.72
2022-10-18T21:34:04.506Z,78.14
2022-10-18T21:36:33.799Z,77.92
2022-10-18T21:39:01.921Z,76.93
2022-10-18T21:41:28.508Z,77.01
2022-10-18T21:43:55.439Z,76.88
2022-10-18T21:46:23.785Z,77.12
2022-10-18T21:48:52.851Z,78.48
2022-10-18T21:51:21.744Z,76.95
2022-10-18T21:53:51.179Z,76.51
2022-10-18T21:56:23.374Z,76.39
2022-10-18T21:58:50.515Z,76.69
2022-10-18T22:01:20.241Z,77.24
2022-10-18T22:03:49.503Z,78.02
2022-10-18T22:06:16.858Z,77.80
2022-10-18T22:08:48.166Z,77.04
2022-10-18T22:11:15.815Z,77.17
2022-10-18T22:13:43.098Z,77.68
2022-10-18T22:16:13.347Z,77.64
2022-10-18T22:18:40.761Z,77.62
2022-10-18T22:21:10.384Z,76.60
2022-10-18T22:23:43.193Z,75.99
2022-10-18T22:26:20.392Z,76.89
2022-10-18T22:28:47.725Z,76.88
2022-10-18T22:31:20.737Z,76.96
2022-10-18T22:33:53.358Z,77.08
2022-10-18T22:36:20.005Z,77.78
2022-10-18T22:38:46.563Z,77.48
2022-10-18T22:41:13.248Z,77.04
2022-10-18T22:43:40.014Z,75.93
2022-10-18T22:46:09.124Z,77.23
2022-10-18T22:48:36.405Z,77.29
2022-10-18T22:51:03.917Z,78.36
2022-10-18T22:53:31.501Z,77.09
2022-10-18T22:55:58.122Z,77.29
2022-10-18T22:58:25.057Z,77.46
2022-10-18T23:00:51.771Z,77.36
2022-10-18T23:03:18.967Z,77.21
2022-10-18T23:05:46.889Z,76.47
2022-10-18T23:08:14.348Z,76.36
2022-10-18T23:10:42.848Z,77.24
2022-10-18T23:13:10.728Z,78.19
2022-10-18T23:15:39.077Z,76.97
2022-10-18T23:18:06.337Z,76.64
2022-10-18T23:20:33.185Z,77.25
2022-10-18T23:22:59.810Z,76.61
2022-10-18T23:25:27.810Z,77.49
2022-10-18T23:27:54.381Z,76.55
2022-10-18T23:30:21.081Z,76.73
2022-10-18T23:32:47.890Z,77.61
2022-10-18T23:35:14.750Z,78.30
2022-10-18T23:37:41.315Z,77.46
2022-10-18T23:40:08.958Z,76.99
2022-10-18T23:42:35.491Z,76.80
2022-10-18T23:45:02.117Z,76.19
2022-10-18T23:47:28.736Z,76.99
2022-10-18T23:49:57.210Z,77.11
2022-10-18T23:52:24.733Z,76.98
2022-10-18T23:54:51.432Z,77.60
2022-10-18T23:57:18.033Z,77.74
2022-10-18T23:59:44.650Z,77.80
